createdAt,value
2019-05-25T00:03:28.658Z,10.96
2019-05-25T00:08:35.216Z,10.95
2019-05-25T00:13:41.873Z,10.98
2019-05-25T00:18:48.490Z,11.06
2019-05-25T00:24:10.903Z,11.12
2019-05-25T00:29:03.495Z,11.12
2019-05-25T00:34:10.043Z,11.07
2019-05-25T00:39:16.667Z,11.08
2019-05-25T00:44:23.284Z,11.07
2019-05-25T00:49:29.733Z,11.08
2019-05-25T00:54:36.362Z,11.14
2019-05-25T00:59:44.054Z,11.21
2019-05-25T01:04:50.604Z,11.26
2019-05-25T01:09:57.262Z,11.20
2019-05-25T01:15:05.119Z,11.20
2019-05-25T01:20:13.399Z,11.26
2019-05-25T01:25:20.097Z,11.22
2019-05-25T01:30:27.147Z,11.14
2019-05-25T01:35:33.711Z,10.77
2019-05-25T01:40:40.342Z,10.74
2019-05-25T01:45:46.734Z,10.55
2019-05-25T01:50:53.250Z,10.45
2019-05-25T01:55:59.781Z,10.42
2019-05-25T02:01:06.738Z,10.34
2019-05-25T02:06:13.287Z,10.31
2019-05-25T02:11:21.127Z,10.20
2019-05-25T02:16:27.683Z,10.24
2019-05-25T02:21:34.234Z,10.25
2019-05-25T02:26:40.939Z,10.21
2019-05-25T02:31:47.540Z,10.17
2019-05-25T02:36:54.136Z,10.03
2019-05-25T02:42:00.758Z,10.05
2019-05-25T02:47:07.316Z,9.97
2019-05-25T02:52:14.836Z,9.95
2019-05-25T02:57:21.375Z,9.98
2019-05-25T03:02:27.984Z,9.97
2019-05-25T03:07:35.935Z,9.93
2019-05-25T03:12:43.585Z,9.91
2019-05-25T03:17:50.118Z,9.95
2019-05-25T03:22:56.774Z,9.93
2019-05-25T03:28:03.390Z,9.96
2019-05-25T03:33:10.009Z,9.91
2019-05-25T03:38:16.807Z,9.87
2019-05-25T03:43:23.428Z,9.93
2019-05-25T03:48:30.041Z,9.87
2019-05-25T03:53:36.602Z,9.99
2019-05-25T03:58:43.055Z,9.86
2019-05-25T04:03:49.715Z,10.00
2019-05-25T04:08:56.178Z,10.08
2019-05-25T04:14:02.802Z,10.30
2019-05-25T04:19:09.408Z,10.45
2019-05-25T04:24:18.377Z,10.65
2019-05-25T04:29:25.095Z,10.80
2019-05-25T04:34:31.658Z,10.87
2019-05-25T04:39:38.252Z,10.88
2019-05-25T04:44:44.793Z,11.17
2019-05-25T04:49:51.513Z,13.31
2019-05-25T04:54:57.976Z,15.19
2019-05-25T05:00:05.334Z,16.27
2019-05-25T05:05:12.950Z,13.38
2019-05-25T05:10:19.786Z,13.06
2019-05-25T05:15:27.423Z,13.24
2019-05-25T05:20:33.965Z,13.31
2019-05-25T05:25:42.821Z,13.76
2019-05-25T05:30:49.554Z,14.37
2019-05-25T05:35:57.198Z,14.59
2019-05-25T05:41:04.712Z,14.98
2019-05-25T05:46:16.333Z,15.03
2019-05-25T05:51:23.004Z,14.92
2019-05-25T05:56:29.647Z,15.22
2019-05-25T06:01:36.287Z,15.13
2019-05-25T06:06:42.888Z,15.46
2019-05-25T06:11:49.459Z,15.97
2019-05-25T06:16:56.109Z,15.65
2019-05-25T06:22:03.648Z,15.37
2019-05-25T06:27:10.313Z,15.85
2019-05-25T06:32:16.973Z,15.90
2019-05-25T06:37:23.649Z,16.43
2019-05-25T06:42:30.216Z,17.05
2019-05-25T06:47:36.892Z,17.28
2019-05-25T06:52:43.470Z,17.47
2019-05-25T06:57:50.616Z,18.09
2019-05-25T07:02:57.427Z,18.17
2019-05-25T07:08:04.054Z,18.08
2019-05-25T07:13:12.024Z,18.12
2019-05-25T07:18:21.418Z,18.52
2019-05-25T07:23:29.441Z,18.99
2019-05-25T07:28:36.134Z,19.00
2019-05-25T07:33:42.734Z,18.63
2019-05-25T07:38:50.473Z,19.37
2019-05-25T07:43:57.026Z,19.39
2019-05-25T07:49:03.759Z,19.68
2019-05-25T07:54:10.724Z,19.85
2019-05-25T07:59:17.575Z,19.60
2019-05-25T08:04:24.124Z,19.57
2019-05-25T08:09:30.799Z,19.72
2019-05-25T08:14:38.571Z,19.67
2019-05-25T08:19:45.156Z,18.36
2019-05-25T08:24:51.803Z,19.63
2019-05-25T08:29:58.413Z,19.94
2019-05-25T08:35:05.809Z,20.21
2019-05-25T08:40:12.556Z,20.30
2019-05-25T08:45:19.341Z,19.64
2019-05-25T08:50:37.660Z,20.37
2019-05-25T08:55:34.293Z,20.88
2019-05-25T09:00:40.854Z,20.50
2019-05-25T09:05:47.462Z,20.87
2019-05-25T09:10:53.962Z,20.92
2019-05-25T09:16:00.621Z,21.00
2019-05-25T09:21:07.265Z,21.11
2019-05-25T09:26:13.831Z,20.82
2019-05-25T09:31:20.377Z,21.33
2019-05-25T09:36:26.959Z,21.48
2019-05-25T09:41:33.475Z,21.05
2019-05-25T09:46:40.166Z,21.30
2019-05-25T09:51:48.647Z,21.08
2019-05-25T09:56:54.968Z,21.19
2019-05-25T10:02:01.734Z,21.48
2019-05-25T10:07:08.378Z,21.66
2019-05-25T10:12:16.299Z,21.40
2019-05-25T10:17:24.038Z,22.19
2019-05-25T10:22:30.771Z,21.99
2019-05-25T10:27:37.487Z,22.32
2019-05-25T10:32:44.021Z,22.49
2019-05-25T10:37:50.597Z,22.34
2019-05-25T10:42:57.235Z,22.93
2019-05-25T10:48:03.880Z,22.81
2019-05-25T10:53:10.446Z,22.56
2019-05-25T10:58:17.098Z,22.07
2019-05-25T11:03:24.798Z,22.25
2019-05-25T11:08:31.476Z,22.54
2019-05-25T11:13:37.970Z,22.34
2019-05-25T11:18:44.620Z,22.32
2019-05-25T11:23:51.183Z,22.29
2019-05-25T11:28:57.744Z,22.82
2019-05-25T11:34:04.392Z,22.50
2019-05-25T11:39:11.087Z,23.00
2019-05-25T11:44:17.704Z,23.66
2019-05-25T11:49:24.181Z,23.36
2019-05-25T11:54:30.635Z,23.71
2019-05-25T11:59:37.255Z,23.40
2019-05-25T12:04:43.864Z,22.89
2019-05-25T12:09:51.408Z,23.88
2019-05-25T12:14:57.892Z,23.78
2019-05-25T12:20:05.663Z,24.08
2019-05-25T12:25:12.465Z,24.48
2019-05-25T12:30:19.603Z,23.85
2019-05-25T12:35:26.231Z,23.21
2019-05-25T12:40:32.895Z,23.26
2019-05-25T12:45:42.130Z,24.46
2019-05-25T12:50:47.779Z,23.93
2019-05-25T12:55:54.328Z,24.42
2019-05-25T13:01:01.015Z,24.51
2019-05-25T13:06:07.743Z,23.87
2019-05-25T13:11:14.373Z,23.30
2019-05-25T13:16:21.977Z,23.37
2019-05-25T13:21:28.694Z,23.43
2019-05-25T13:26:35.450Z,23.78
2019-05-25T13:31:42.034Z,24.29
2019-05-25T13:36:48.683Z,24.72
2019-05-25T13:41:55.327Z,24.80
2019-05-25T13:47:01.894Z,25.09
2019-05-25T13:52:08.573Z,24.87
2019-05-25T13:57:15.144Z,24.65
2019-05-25T14:02:21.730Z,24.69
2019-05-25T14:07:28.361Z,24.62
2019-05-25T14:12:34.975Z,25.09
2019-05-25T14:17:41.559Z,24.82
2019-05-25T14:22:48.451Z,25.66
2019-05-25T14:27:55.153Z,25.61
2019-05-25T14:33:01.988Z,25.41
2019-05-25T14:38:08.740Z,24.49
2019-05-25T14:43:15.437Z,24.31
2019-05-25T14:48:22.117Z,23.69
2019-05-25T14:53:28.880Z,23.56
2019-05-25T14:58:35.733Z,23.62
2019-05-25T15:03:42.360Z,23.42
2019-05-25T15:08:49.003Z,23.14
2019-05-25T15:13:55.663Z,23.64
2019-05-25T15:19:02.268Z,24.19
2019-05-25T15:24:09.014Z,24.30
2019-05-25T15:29:15.484Z,23.42
2019-05-25T15:34:22.206Z,23.92
2019-05-25T15:39:28.708Z,23.13
2019-05-25T15:44:35.284Z,23.00
2019-05-25T15:49:42.011Z,23.08
2019-05-25T15:54:48.591Z,23.13
2019-05-25T15:59:55.172Z,23.85
2019-05-25T16:05:01.788Z,23.38
2019-05-25T16:10:11.144Z,23.12
2019-05-25T16:15:27.832Z,23.18
2019-05-25T16:20:34.438Z,22.82
2019-05-25T16:25:41.129Z,23.26
2019-05-25T16:30:47.717Z,23.24
2019-05-25T16:35:57.749Z,23.07
2019-05-25T16:41:02.730Z,23.49
2019-05-25T16:46:09.359Z,23.31
2019-05-25T16:51:15.947Z,23.35
2019-05-25T16:56:22.637Z,22.36
2019-05-25T17:01:46.924Z,22.09
2019-05-25T17:06:38.470Z,21.79
2019-05-25T17:11:45.757Z,22.09
2019-05-25T17:16:52.296Z,22.07
2019-05-25T17:21:59.202Z,21.44
2019-05-25T17:27:06.052Z,21.15
2019-05-25T17:32:14.237Z,21.00
2019-05-25T17:37:20.891Z,20.91
2019-05-25T17:42:27.591Z,20.58
2019-05-25T17:47:35.805Z,20.23
2019-05-25T17:52:42.532Z,19.93
2019-05-25T17:57:49.090Z,19.66
2019-05-25T18:02:55.937Z,19.30
2019-05-25T18:08:02.606Z,19.04
2019-05-25T18:13:09.261Z,18.77
2019-05-25T18:18:15.911Z,18.59
2019-05-25T18:23:22.564Z,18.45
2019-05-25T18:28:29.233Z,18.11
2019-05-25T18:33:35.713Z,18.17
2019-05-25T18:38:42.210Z,17.86
2019-05-25T18:43:48.946Z,17.72
2019-05-25T18:48:55.511Z,17.25
2019-05-25T18:54:02.076Z,17.28
2019-05-25T18:59:08.713Z,17.02
2019-05-25T19:04:15.268Z,16.84
2019-05-25T19:09:21.920Z,16.67
2019-05-25T19:14:28.595Z,16.38
2019-05-25T19:19:35.247Z,16.29
2019-05-25T19:24:41.835Z,16.01
2019-05-25T19:29:48.526Z,15.81
2019-05-25T19:34:59.783Z,15.68
2019-05-25T19:40:08.596Z,15.54
2019-05-25T19:45:12.403Z,15.35
2019-05-25T19:50:19.932Z,15.15
2019-05-25T19:55:26.566Z,15.05
2019-05-25T20:00:33.065Z,15.12
2019-05-25T20:05:39.630Z,15.00
2019-05-25T20:10:46.292Z,14.84
2019-05-25T20:15:52.846Z,14.68
2019-05-25T20:20:59.948Z,14.47
2019-05-25T20:26:06.622Z,14.32
2019-05-25T20:31:13.131Z,14.07
2019-05-25T20:36:19.770Z,13.82
2019-05-25T20:41:26.378Z,13.71
2019-05-25T20:46:33.137Z,13.52
2019-05-25T20:51:39.844Z,13.31
2019-05-25T20:56:46.259Z,13.00
2019-05-25T21:01:52.891Z,13.02
2019-05-25T21:06:59.322Z,13.14
2019-05-25T21:12:05.950Z,13.30
2019-05-25T21:17:12.564Z,13.33
2019-05-25T21:22:19.235Z,13.26
2019-05-25T21:27:25.903Z,13.17
2019-05-25T21:32:32.527Z,13.04
2019-05-25T21:37:39.103Z,12.86
2019-05-25T21:42:45.672Z,12.79
2019-05-25T21:47:55.873Z,12.56
2019-05-25T21:53:00.436Z,12.24
2019-05-25T21:58:07.111Z,12.00
2019-05-25T22:03:13.813Z,11.90
2019-05-25T22:08:20.432Z,11.75
2019-05-25T22:13:28.799Z,11.79
2019-05-25T22:18:35.275Z,11.77
2019-05-25T22:23:41.819Z,11.73
2019-05-25T22:28:50.391Z,11.89
2019-05-25T22:33:59.289Z,11.94
2019-05-25T22:39:07.130Z,11.92
2019-05-25T22:44:13.696Z,11.92
2019-05-25T22:49:20.236Z,11.83
2019-05-25T22:54:26.972Z,11.62
2019-05-25T22:59:33.511Z,11.38
2019-05-25T23:04:40.119Z,11.24
2019-05-25T23:09:46.698Z,11.19
2019-05-25T23:14:53.160Z,10.97
2019-05-25T23:19:59.722Z,10.81
2019-05-25T23:25:06.728Z,10.68
2019-05-25T23:30:15.151Z,10.59
2019-05-25T23:35:21.670Z,10.51
2019-05-25T23:40:28.411Z,10.74
2019-05-25T23:45:34.939Z,10.90
2019-05-25T23:50:41.495Z,10.97
2019-05-25T23:55:48.862Z,11.03
